Terminal Aerodrome Forecast
Issued by NWS

Current Version | Previous Version | Text Only | Print | Product List | Glossary On
Versions: 1 2 3 4 5 6 7 8 9 10 11 12 13 14 15 16
920
FTUS41 KBTV 262323
TAFRUT
TAF
KRUT 262323Z 2700/2724 13004KT P6SM VCSH OVC060
     FM270600 14005KT P6SM BKN060
     FM270900 15004KT P6SM SCT070
     FM271500 23004KT P6SM VCSH SCT080
     FM272000 26005KT P6SM VCSH BKN090=

USA.gov is the U.S. government's official web portal to all federal, state and local government web resources and services.